Time;durP1;ratioP1;P1;durP2;ratioP2;P2;SDS_P1;SDS_P2;PMS_P1;PMS_P2;Temp;Humidity;BMP_temperature;BMP_pressure;BME280_temperature;BME280_humidity;BME280_pressure;Samples;Min_cycle;Max_cycle;Signal;HPM_P1;HPM_P2
2021/01/07 00:01:31;;;;;;;;;;;19.60;56.50;;;;;;5013275;28;1254;-67
2021/01/07 00:03:57;;;;;;;;;;;19.50;56.50;;;;;;5012785;28;1378;-67
2021/01/07 00:06:22;;;;;;;;;;;19.60;56.60;;;;;;5012960;28;1282;-67
2021/01/07 00:08:48;;;;;;;;;;;19.60;56.60;;;;;;5011857;28;1402;-67
2021/01/07 00:11:13;;;;;;;;;;;19.60;56.60;;;;;;5012641;28;1392;-67
2021/01/07 00:13:39;;;;;;;;;;;19.60;56.60;;;;;;5012478;28;1953;-67
2021/01/07 00:16:05;;;;;;;;;;;19.60;56.60;;;;;;5014261;28;1115;-69
2021/01/07 00:18:30;;;;;;;;;;;19.60;56.60;;;;;;5011958;28;1295;-66
2021/01/07 00:20:56;;;;;;;;;;;19.60;56.60;;;;;;5011764;28;1341;-67
2021/01/07 00:23:21;;;;;;;;;;;19.50;56.60;;;;;;5012269;28;1283;-67
2021/01/07 00:25:47;;;;;;;;;;;19.50;56.60;;;;;;5012161;28;1284;-68
2021/01/07 00:28:13;;;;;;;;;;;19.50;56.70;;;;;;5038868;22;3820;-67
2021/01/07 00:30:38;;;;;;;;;;;19.50;56.60;;;;;;5033719;28;980;-67
2021/01/07 00:33:04;;;;;;;;;;;19.50;56.60;;;;;;5032067;28;1976;-67
2021/01/07 00:35:29;;;;;;;;;;;19.50;57.20;;;;;;5031990;28;1648;-66
2021/01/07 00:37:55;;;;;;;;;;;19.50;56.70;;;;;;5031561;28;1332;-68
2021/01/07 00:40:20;;;;;;;;;;;19.50;56.70;;;;;;5032581;28;1378;-66
2021/01/07 00:42:46;;;;;;;;;;;19.50;56.70;;;;;;5032347;28;1226;-65
2021/01/07 00:45:11;;;;;;;;;;;19.50;56.70;;;;;;5032538;28;1725;-66
2021/01/07 00:47:37;;;;;;;;;;;19.50;56.70;;;;;;5032530;28;1573;-65
2021/01/07 00:50:02;;;;;;;;;;;19.50;57.30;;;;;;5032702;28;1377;-66
2021/01/07 00:52:28;;;;;;;;;;;19.50;56.70;;;;;;5046002;28;1530;-66
2021/01/07 00:54:53;;;;;;;;;;;19.50;56.70;;;;;;5032138;28;1953;-66
2021/01/07 00:57:19;;;;;;;;;;;19.50;56.80;;;;;;5032032;28;1393;-65
2021/01/07 00:59:44;;;;;;;;;;;19.50;56.70;;;;;;5032534;28;1625;-65
2021/01/07 01:02:10;;;;;;;;;;;19.50;56.70;;;;;;5032341;28;1228;-67
2021/01/07 01:04:35;;;;;;;;;;;19.50;56.80;;;;;;5032379;28;1347;-67
2021/01/07 01:07:01;;;;;;;;;;;19.50;57.40;;;;;;5030931;28;1698;-66
2021/01/07 01:09:26;;;;;;;;;;;19.50;56.80;;;;;;5031026;28;1757;-66
2021/01/07 01:11:52;;;;;;;;;;;19.50;56.80;;;;;;5032439;28;1135;-67
2021/01/07 01:14:18;;;;;;;;;;;19.50;56.80;;;;;;5030755;28;1902;-66
2021/01/07 01:16:45;;;;;;;;;;;19.50;56.80;;;;;;5030850;28;1284;-67
2021/01/07 01:19:10;;;;;;;;;;;19.40;56.80;;;;;;5032177;28;1657;-66
2021/01/07 01:21:36;;;;;;;;;;;19.40;56.80;;;;;;5030873;28;1345;-68
2021/01/07 01:24:01;;;;;;;;;;;19.40;56.80;;;;;;5030587;28;1610;-68
2021/01/07 01:26:27;;;;;;;;;;;19.40;56.80;;;;;;5031999;28;1705;-68
2021/01/07 01:28:52;;;;;;;;;;;19.40;56.80;;;;;;5031949;28;1375;-67
2021/01/07 01:31:18;;;;;;;;;;;19.40;56.80;;;;;;5032074;28;1659;-68
2021/01/07 01:33:43;;;;;;;;;;;19.40;56.80;;;;;;5031868;28;1911;-69
2021/01/07 01:36:08;;;;;;;;;;;19.40;56.80;;;;;;5030626;28;1645;-67
2021/01/07 01:38:34;;;;;;;;;;;19.40;56.80;;;;;;5031859;28;1712;-68
2021/01/07 01:41:06;;;;;;;;;;;19.40;56.80;;;;;;5031946;28;1636;-66
2021/01/07 01:43:35;;;;;;;;;;;19.40;56.90;;;;;;5030667;28;1277;-67
2021/01/07 01:46:01;;;;;;;;;;;19.40;56.90;;;;;;5030493;28;1661;-66
2021/01/07 01:48:26;;;;;;;;;;;19.40;56.90;;;;;;5030700;28;1387;-67
2021/01/07 01:50:52;;;;;;;;;;;19.40;56.90;;;;;;5038208;28;1364;-67
2021/01/07 01:53:18;;;;;;;;;;;19.40;56.90;;;;;;5037516;28;1910;-66
2021/01/07 01:55:43;;;;;;;;;;;19.40;56.90;;;;;;5033554;28;1227;-67
2021/01/07 01:58:10;;;;;;;;;;;19.40;56.90;;;;;;5035413;28;1324;-67
2021/01/07 02:00:36;;;;;;;;;;;19.40;56.90;;;;;;5033586;28;1182;-68
2021/01/07 02:03:04;;;;;;;;;;;19.40;56.90;;;;;;5034779;28;1328;-68
2021/01/07 02:05:29;;;;;;;;;;;19.40;56.90;;;;;;5016180;28;1302;-68
2021/01/07 02:07:55;;;;;;;;;;;19.40;56.90;;;;;;5015092;28;1257;-69
2021/01/07 02:10:20;;;;;;;;;;;19.40;56.90;;;;;;5014175;28;1395;-68
2021/01/07 02:12:46;;;;;;;;;;;19.40;56.90;;;;;;5016733;28;1329;-68
2021/01/07 02:15:15;;;;;;;;;;;19.40;56.90;;;;;;5035186;28;1957;-69
2021/01/07 02:17:40;;;;;;;;;;;19.40;56.90;;;;;;5035057;28;1358;-69
2021/01/07 02:20:07;;;;;;;;;;;19.40;56.90;;;;;;5035376;28;1325;-68
2021/01/07 02:22:33;;;;;;;;;;;19.40;56.90;;;;;;5035014;28;1246;-68
2021/01/07 02:24:58;;;;;;;;;;;19.40;57.00;;;;;;5034926;28;1392;-68
2021/01/07 02:27:23;;;;;;;;;;;19.40;56.90;;;;;;5033800;28;1361;-68
2021/01/07 02:29:49;;;;;;;;;;;19.40;57.00;;;;;;5033751;28;1275;-68
2021/01/07 02:32:14;;;;;;;;;;;19.40;56.90;;;;;;5034905;28;1317;-68
2021/01/07 02:34:40;;;;;;;;;;;19.40;56.90;;;;;;5034531;28;1957;-68
2021/01/07 02:37:05;;;;;;;;;;;19.40;57.00;;;;;;5034356;28;1281;-68
2021/01/07 02:39:31;;;;;;;;;;;19.40;57.30;;;;;;5033513;28;1402;-68
2021/01/07 02:41:56;;;;;;;;;;;19.40;57.00;;;;;;5034777;28;1236;-69
2021/01/07 02:44:22;;;;;;;;;;;19.40;57.00;;;;;;5033304;28;1328;-69
2021/01/07 02:46:48;;;;;;;;;;;19.40;57.00;;;;;;5033307;28;1421;-68
2021/01/07 02:49:13;;;;;;;;;;;19.30;56.90;;;;;;5033258;28;1335;-69
2021/01/07 02:51:39;;;;;;;;;;;19.30;56.90;;;;;;5032986;28;1257;-68
2021/01/07 02:54:05;;;;;;;;;;;19.30;56.90;;;;;;5034158;28;1902;-68
2021/01/07 02:56:31;;;;;;;;;;;19.30;57.00;;;;;;5034391;28;1268;-69
2021/01/07 02:58:56;;;;;;;;;;;19.30;57.00;;;;;;5032876;28;1287;-68
2021/01/07 03:01:22;;;;;;;;;;;19.30;57.00;;;;;;5034229;28;1152;-68
2021/01/07 03:03:47;;;;;;;;;;;19.30;57.00;;;;;;5034062;28;1313;-69
2021/01/07 03:06:13;;;;;;;;;;;19.30;57.00;;;;;;5033673;28;1267;-68
2021/01/07 03:08:38;;;;;;;;;;;19.30;57.00;;;;;;5032738;28;1359;-68
2021/01/07 03:11:03;;;;;;;;;;;19.30;57.00;;;;;;5032875;28;1326;-68
2021/01/07 03:13:29;;;;;;;;;;;19.30;57.00;;;;;;5033839;28;1906;-67
2021/01/07 03:15:54;;;;;;;;;;;19.30;57.00;;;;;;5033851;28;1234;-69
2021/01/07 03:18:20;;;;;;;;;;;19.30;57.00;;;;;;5034087;28;1209;-69
2021/01/07 03:20:45;;;;;;;;;;;19.30;57.00;;;;;;5032399;28;1200;-68
2021/01/07 03:23:11;;;;;;;;;;;19.30;57.00;;;;;;5033143;28;1256;-68
2021/01/07 03:25:36;;;;;;;;;;;19.30;57.00;;;;;;5034425;28;1309;-69
2021/01/07 03:28:02;;;;;;;;;;;19.30;57.00;;;;;;5031365;28;1400;-68
2021/01/07 03:30:27;;;;;;;;;;;19.30;57.60;;;;;;5032861;28;1420;-69
2021/01/07 03:32:53;;;;;;;;;;;19.30;57.00;;;;;;5032285;28;1302;-68
2021/01/07 03:35:18;;;;;;;;;;;19.30;57.00;;;;;;5031729;28;1905;-68
2021/01/07 03:37:43;;;;;;;;;;;19.30;57.00;;;;;;5031625;28;1336;-67
2021/01/07 03:40:09;;;;;;;;;;;19.30;57.00;;;;;;5034212;28;1494;-67
2021/01/07 03:42:35;;;;;;;;;;;19.30;57.00;;;;;;5033118;28;1264;-68
2021/01/07 03:45:00;;;;;;;;;;;19.30;57.00;;;;;;5032907;28;1328;-67
2021/01/07 03:47:26;;;;;;;;;;;19.30;57.00;;;;;;5031859;28;1407;-68
2021/01/07 03:49:51;;;;;;;;;;;19.30;57.10;;;;;;5034330;28;1345;-68
2021/01/07 03:52:17;;;;;;;;;;;19.30;57.10;;;;;;5047660;28;1394;-67
2021/01/07 03:54:42;;;;;;;;;;;19.30;57.10;;;;;;5034427;28;1967;-69
2021/01/07 03:57:08;;;;;;;;;;;19.30;57.10;;;;;;5033071;28;1500;-68
2021/01/07 03:59:33;;;;;;;;;;;19.20;57.10;;;;;;5034518;28;1115;-68
2021/01/07 04:01:59;;;;;;;;;;;19.30;57.10;;;;;;5034334;28;1342;-68
2021/01/07 04:04:24;;;;;;;;;;;19.20;57.10;;;;;;5034014;28;1354;-67
2021/01/07 04:06:49;;;;;;;;;;;19.30;57.10;;;;;;5034035;28;1303;-68
2021/01/07 04:09:15;;;;;;;;;;;19.30;57.10;;;;;;5034333;28;1350;-67
2021/01/07 04:11:40;;;;;;;;;;;19.30;57.10;;;;;;5034375;28;1342;-68
2021/01/07 04:14:06;;;;;;;;;;;19.30;57.10;;;;;;5032640;28;1956;-67
2021/01/07 04:16:31;;;;;;;;;;;19.30;57.60;;;;;;5034030;28;1491;-67
2021/01/07 04:18:57;;;;;;;;;;;19.20;57.00;;;;;;5033141;28;1383;-68
2021/01/07 04:21:22;;;;;;;;;;;19.30;57.10;;;;;;5033952;28;1293;-70
2021/01/07 04:23:48;;;;;;;;;;;19.30;57.00;;;;;;5032605;28;1439;-69
2021/01/07 04:26:14;;;;;;;;;;;19.30;57.00;;;;;;5033828;28;1299;-68
2021/01/07 04:28:39;;;;;;;;;;;19.30;57.00;;;;;;5033772;28;1314;-68
2021/01/07 04:31:05;;;;;;;;;;;19.30;57.00;;;;;;5033891;28;1327;-69
2021/01/07 04:33:30;;;;;;;;;;;19.40;56.90;;;;;;5033653;28;1965;-68
2021/01/07 04:35:56;;;;;;;;;;;19.30;56.80;;;;;;5033508;28;1309;-68
2021/01/07 04:38:21;;;;;;;;;;;19.40;56.90;;;;;;5033889;28;1481;-68
2021/01/07 04:40:46;;;;;;;;;;;19.40;56.90;;;;;;5033903;28;1323;-68
2021/01/07 04:43:12;;;;;;;;;;;19.40;56.80;;;;;;5033728;28;1343;-67
2021/01/07 04:45:37;;;;;;;;;;;19.40;56.80;;;;;;5033509;28;1162;-67
2021/01/07 04:48:03;;;;;;;;;;;19.40;56.80;;;;;;5033356;28;1381;-67
2021/01/07 04:50:28;;;;;;;;;;;19.40;56.80;;;;;;5036621;28;1457;-67
2021/01/07 04:52:54;;;;;;;;;;;19.40;56.70;;;;;;5042396;28;1346;-67
2021/01/07 04:55:19;;;;;;;;;;;19.40;56.80;;;;;;5033237;28;1957;-67
2021/01/07 04:57:45;;;;;;;;;;;19.40;56.70;;;;;;5032140;28;1507;-67
2021/01/07 05:00:11;;;;;;;;;;;19.40;56.70;;;;;;5033356;28;1287;-67
2021/01/07 05:02:36;;;;;;;;;;;19.40;56.70;;;;;;5032460;28;1269;-67
2021/01/07 05:05:05;;;;;;;;;;;19.40;56.70;;;;;;5031868;28;1541;-68
2021/01/07 05:07:31;;;;;;;;;;;19.40;56.70;;;;;;5032077;28;1413;-67
2021/01/07 05:10:00;;;;;;;;;;;19.40;56.70;;;;;;5033178;28;1339;-66
2021/01/07 05:12:25;;;;;;;;;;;19.40;56.70;;;;;;5015545;28;1261;-67
2021/01/07 05:14:51;;;;;;;;;;;19.40;56.60;;;;;;5032910;28;1949;-68
2021/01/07 05:17:16;;;;;;;;;;;19.40;56.60;;;;;;5032757;28;1353;-67
2021/01/07 05:19:42;;;;;;;;;;;19.40;56.70;;;;;;5033067;28;1594;-67
2021/01/07 05:22:07;;;;;;;;;;;19.40;56.60;;;;;;5033000;28;1341;-68
2021/01/07 05:24:33;;;;;;;;;;;19.40;56.60;;;;;;5032883;28;1390;-67
2021/01/07 05:27:08;;;;;;;;;;;19.40;56.60;;;;;;5032670;28;1343;-67
2021/01/07 05:29:34;;;;;;;;;;;19.40;56.60;;;;;;5032904;28;1352;-68
2021/01/07 05:31:59;;;;;;;;;;;19.40;56.60;;;;;;5032782;28;1374;-68
2021/01/07 05:34:25;;;;;;;;;;;19.40;56.60;;;;;;5032671;28;1914;-67
2021/01/07 05:36:55;;;;;;;;;;;19.40;56.60;;;;;;5032703;28;1439;-67
2021/01/07 05:39:20;;;;;;;;;;;19.40;56.60;;;;;;5032948;28;1402;-68
2021/01/07 05:41:46;;;;;;;;;;;19.40;56.50;;;;;;5032794;28;1292;-68
2021/01/07 05:44:14;;;;;;;;;;;19.50;56.60;;;;;;5014850;28;1362;-68
2021/01/07 05:46:40;;;;;;;;;;;19.50;56.60;;;;;;5032689;28;1303;-66
2021/01/07 05:49:05;;;;;;;;;;;19.40;56.50;;;;;;5033014;28;1342;-67
2021/01/07 05:51:31;;;;;;;;;;;19.40;56.50;;;;;;5044516;28;1222;-69
2021/01/07 05:53:57;;;;;;;;;;;19.40;56.50;;;;;;5034038;28;1906;-69
2021/01/07 05:56:23;;;;;;;;;;;19.40;56.50;;;;;;5031418;28;1546;-69
2021/01/07 05:58:48;;;;;;;;;;;19.50;56.60;;;;;;5032539;28;1395;-69
2021/01/07 06:01:14;;;;;;;;;;;19.40;56.50;;;;;;5031369;28;1356;-69
2021/01/07 06:03:40;;;;;;;;;;;19.40;56.50;;;;;;5014816;28;1362;-69
2021/01/07 06:06:05;;;;;;;;;;;19.50;56.60;;;;;;5031563;28;1327;-68
2021/01/07 06:08:31;;;;;;;;;;;19.50;56.60;;;;;;5031278;28;1399;-68
2021/01/07 06:10:57;;;;;;;;;;;19.50;56.60;;;;;;5032704;28;1296;-68
2021/01/07 06:13:23;;;;;;;;;;;19.50;56.60;;;;;;5014661;28;1898;-66
2021/01/07 06:15:49;;;;;;;;;;;19.50;56.60;;;;;;5030912;28;1076;-65
2021/01/07 06:18:15;;;;;;;;;;;19.50;56.50;;;;;;5031297;28;1318;-67
2021/01/07 06:20:41;;;;;;;;;;;19.50;56.50;;;;;;5031231;28;1667;-67
2021/01/07 06:23:06;;;;;;;;;;;19.50;56.50;;;;;;5031184;28;1608;-67
2021/01/07 06:25:31;;;;;;;;;;;19.50;56.50;;;;;;5030979;28;1343;-67
2021/01/07 06:30:30;;;;;;;;;;;19.50;56.50;;;;;;5049353;28;1848;-67
2021/01/07 06:33:06;;;;;;;;;;;19.50;56.50;;;;;;5033907;28;1334;-67
2021/01/07 06:35:35;;;;;;;;;;;19.50;56.50;;;;;;5051609;28;1918;-66
2021/01/07 06:38:00;;;;;;;;;;;19.50;56.50;;;;;;5054153;28;1675;-67
2021/01/07 06:40:26;;;;;;;;;;;19.50;56.50;;;;;;5072568;28;1435;-67
2021/01/07 06:42:55;;;;;;;;;;;19.50;56.50;;;;;;5075528;28;1191;-67
2021/01/07 06:45:24;;;;;;;;;;;19.50;56.50;;;;;;5041683;28;1727;-67
2021/01/07 06:47:53;;;;;;;;;;;19.50;56.50;;;;;;5049391;28;1539;-66
2021/01/07 06:50:19;;;;;;;;;;;19.50;56.60;;;;;;5033385;28;2013;-66
2021/01/07 06:52:45;;;;;;;;;;;19.50;56.50;;;;;;5053106;28;1255;-66
2021/01/07 06:55:13;;;;;;;;;;;19.50;56.50;;;;;;5070504;28;1910;-66
2021/01/07 06:57:39;;;;;;;;;;;19.50;56.50;;;;;;5067627;28;1659;-68
2021/01/07 07:00:05;;;;;;;;;;;19.50;56.50;;;;;;5055569;28;1242;-69
2021/01/07 07:02:31;;;;;;;;;;;19.50;56.50;;;;;;5045740;28;1170;-67
2021/01/07 07:05:00;;;;;;;;;;;19.50;56.50;;;;;;5065873;28;1377;-65
2021/01/07 07:07:46;;;;;;;;;;;19.50;56.50;;;;;;5040856;28;1672;-66
2021/01/07 07:10:17;;;;;;;;;;;19.50;56.50;;;;;;5052575;28;1459;-67
2021/01/07 07:12:46;;;;;;;;;;;19.50;56.50;;;;;;5073057;28;1441;-66
2021/01/07 07:15:11;;;;;;;;;;;19.50;56.50;;;;;;5061451;28;1902;-66
2021/01/07 07:17:37;;;;;;;;;;;19.50;56.50;;;;;;5057253;28;1474;-66
2021/01/07 07:20:05;;;;;;;;;;;19.50;56.50;;;;;;5045388;28;1612;-67
2021/01/07 07:22:38;;;;;;;;;;;19.50;56.50;;;;;;5067548;28;1382;-66
2021/01/07 07:25:04;;;;;;;;;;;19.50;56.50;;;;;;5032398;28;1674;-66
2021/01/07 07:27:40;;;;;;;;;;;19.50;56.50;;;;;;5056977;28;1406;-67
2021/01/07 07:30:06;;;;;;;;;;;19.50;56.50;;;;;;5057116;28;1492;-67
2021/01/07 07:32:31;;;;;;;;;;;19.50;56.50;;;;;;5057176;28;1652;-66
2021/01/07 07:34:56;;;;;;;;;;;19.50;56.50;;;;;;5074475;28;1975;-66
2021/01/07 07:37:23;;;;;;;;;;;19.50;56.50;;;;;;5074842;28;1621;-66
2021/01/07 07:39:49;;;;;;;;;;;19.50;56.50;;;;;;5060642;28;1452;-66
2021/01/07 07:42:15;;;;;;;;;;;19.50;56.50;;;;;;5069914;28;1614;-67
2021/01/07 07:44:40;;;;;;;;;;;19.50;56.50;;;;;;5054708;28;1596;-68
2021/01/07 07:47:06;;;;;;;;;;;19.50;56.50;;;;;;5069893;28;1679;-68
2021/01/07 07:49:31;;;;;;;;;;;19.50;56.50;;;;;;5073778;28;1315;-67
2021/01/07 07:51:57;;;;;;;;;;;19.50;56.50;;;;;;5058522;28;1446;-66
2021/01/07 07:54:22;;;;;;;;;;;19.50;56.40;;;;;;5069380;28;1905;-69
2021/01/07 07:56:55;;;;;;;;;;;19.50;56.40;;;;;;5037733;28;1273;-69
2021/01/07 07:59:20;;;;;;;;;;;19.50;56.50;;;;;;5036637;28;1625;-69
2021/01/07 08:01:49;;;;;;;;;;;19.50;56.50;;;;;;5055504;28;1386;-69
2021/01/07 08:04:15;;;;;;;;;;;19.50;56.40;;;;;;5074012;28;1673;-69
2021/01/07 08:06:41;;;;;;;;;;;19.50;56.40;;;;;;5056387;28;1632;-67
2021/01/07 08:09:08;;;;;;;;;;;19.50;56.40;;;;;;5074219;28;1440;-68
2021/01/07 08:11:40;;;;;;;;;;;19.50;56.40;;;;;;5056318;28;1456;-69
2021/01/07 08:14:07;;;;;;;;;;;19.50;56.40;;;;;;5042478;28;1967;-68
2021/01/07 08:16:32;;;;;;;;;;;19.50;56.40;;;;;;5052748;28;1662;-68
2021/01/07 08:18:58;;;;;;;;;;;19.50;56.40;;;;;;5052501;28;1730;-68
2021/01/07 08:21:23;;;;;;;;;;;19.50;56.40;;;;;;5052860;28;1420;-68
2021/01/07 08:23:49;;;;;;;;;;;19.50;56.50;;;;;;5056018;28;1382;-66
2021/01/07 08:26:19;;;;;;;;;;;19.50;56.40;;;;;;5073400;28;1702;-66
2021/01/07 08:28:44;;;;;;;;;;;19.50;56.40;;;;;;5035618;28;2341;-67
2021/01/07 08:31:13;;;;;;;;;;;19.50;56.40;;;;;;5050733;28;1702;-66
2021/01/07 08:33:39;;;;;;;;;;;19.50;56.40;;;;;;5062622;28;1983;-66
2021/01/07 08:36:08;;;;;;;;;;;19.50;56.40;;;;;;5054023;28;1434;-66
2021/01/07 08:38:33;;;;;;;;;;;19.50;56.40;;;;;;5070916;28;1302;-66
2021/01/07 08:41:17;;;;;;;;;;;19.50;56.40;;;;;;5054016;28;1694;-66
2021/01/07 08:43:43;;;;;;;;;;;19.50;56.40;;;;;;5072044;28;1399;-66
2021/01/07 08:46:19;;;;;;;;;;;19.50;56.40;;;;;;5073354;28;1721;-67
2021/01/07 08:48:44;;;;;;;;;;;19.50;56.40;;;;;;5055503;28;1454;-67
2021/01/07 08:51:17;;;;;;;;;;;19.50;56.40;;;;;;5046808;28;1572;-66
2021/01/07 08:53:46;;;;;;;;;;;19.50;56.40;;;;;;5069846;28;1905;-66
2021/01/07 08:56:19;;;;;;;;;;;19.50;56.40;;;;;;5073298;28;1402;-67
2021/01/07 08:58:44;;;;;;;;;;;19.50;56.40;;;;;;5038676;28;1732;-66
2021/01/07 09:01:09;;;;;;;;;;;19.50;56.40;;;;;;5064239;28;1678;-67
2021/01/07 09:03:35;;;;;;;;;;;19.50;56.40;;;;;;5072933;28;1816;-67
2021/01/07 09:06:07;;;;;;;;;;;19.50;56.40;;;;;;5063128;28;1341;-67
2021/01/07 09:08:32;;;;;;;;;;;19.50;56.40;;;;;;5057335;28;1690;-67
2021/01/07 09:11:07;;;;;;;;;;;19.50;56.40;;;;;;5054684;28;2361;-66
2021/01/07 09:13:33;;;;;;;;;;;19.50;56.40;;;;;;5054354;28;1898;-65
2021/01/07 09:16:11;;;;;;;;;;;19.50;56.40;;;;;;5050208;28;1964;-65
2021/01/07 09:18:37;;;;;;;;;;;19.50;56.40;;;;;;5028681;28;1631;-66
2021/01/07 09:21:12;;;;;;;;;;;19.50;56.40;;;;;;5072861;28;1679;-68
2021/01/07 09:23:37;;;;;;;;;;;19.50;56.40;;;;;;5065286;28;1408;-69
2021/01/07 09:26:03;;;;;;;;;;;19.50;56.40;;;;;;5072855;28;1680;-68
2021/01/07 09:28:33;;;;;;;;;;;19.50;56.30;;;;;;5072984;28;1686;-69
2021/01/07 09:30:59;;;;;;;;;;;19.50;56.40;;;;;;5053109;28;2212;-68
2021/01/07 09:33:24;;;;;;;;;;;19.50;56.30;;;;;;5063548;28;1920;-64
2021/01/07 09:35:50;;;;;;;;;;;19.50;56.40;;;;;;5052217;28;1262;-66
2021/01/07 09:38:15;;;;;;;;;;;19.50;56.30;;;;;;5072600;28;1402;-67
2021/01/07 09:40:41;;;;;;;;;;;19.50;56.40;;;;;;5072929;28;1846;-65
2021/01/07 09:43:07;;;;;;;;;;;19.50;56.30;;;;;;5072875;28;1701;-66
2021/01/07 09:45:32;;;;;;;;;;;19.50;56.30;;;;;;5072490;28;1458;-66
2021/01/07 09:47:58;;;;;;;;;;;19.50;56.40;;;;;;5068357;28;1613;-66
2021/01/07 09:50:23;;;;;;;;;;;19.50;56.30;;;;;;5064502;28;1358;-66
2021/01/07 09:52:52;;;;;;;;;;;19.50;56.40;;;;;;5061888;28;1711;-66
2021/01/07 09:55:17;;;;;;;;;;;19.50;56.30;;;;;;5063428;28;1965;-66
2021/01/07 09:57:48;;;;;;;;;;;19.50;56.30;;;;;;5052003;28;1256;-67
2021/01/07 10:00:14;;;;;;;;;;;19.50;56.30;;;;;;5048053;28;1374;-66
2021/01/07 10:02:39;;;;;;;;;;;19.50;56.40;;;;;;5072389;28;1021;-66
2021/01/07 10:05:05;;;;;;;;;;;19.50;56.30;;;;;;5042565;28;1393;-65
2021/01/07 10:07:31;;;;;;;;;;;19.50;56.40;;;;;;5062444;28;1354;-65
2021/01/07 10:09:56;;;;;;;;;;;19.50;56.40;;;;;;5072838;28;1647;-65
2021/01/07 10:12:22;;;;;;;;;;;19.50;56.40;;;;;;5064625;28;1224;-65
2021/01/07 10:14:47;;;;;;;;;;;19.50;56.40;;;;;;5049235;28;1937;-66
2021/01/07 10:17:13;;;;;;;;;;;19.50;56.40;;;;;;5058148;28;1533;-68
2021/01/07 10:19:38;;;;;;;;;;;19.50;56.40;;;;;;5060028;28;1500;-68
2021/01/07 10:22:04;;;;;;;;;;;19.50;56.30;;;;;;5053051;28;1996;-67
2021/01/07 10:24:34;;;;;;;;;;;19.50;56.30;;;;;;5059403;28;1647;-68
2021/01/07 10:27:03;;;;;;;;;;;19.60;56.20;;;;;;5073851;28;1560;-68
2021/01/07 10:29:29;;;;;;;;;;;19.60;56.70;;;;;;5040799;28;1686;-68
2021/01/07 10:31:56;;;;;;;;;;;19.70;56.00;;;;;;5057016;28;1591;-68
2021/01/07 10:34:22;;;;;;;;;;;19.80;55.90;;;;;;5056894;28;1961;-68
2021/01/07 10:36:49;;;;;;;;;;;20.00;55.60;;;;;;5056890;28;1603;-69
2021/01/07 10:39:16;;;;;;;;;;;20.10;55.40;;;;;;5055553;28;1597;-68
2021/01/07 10:41:42;;;;;;;;;;;20.20;55.20;;;;;;5037482;28;1690;-68
2021/01/07 10:44:08;;;;;;;;;;;20.30;54.90;;;;;;5053580;28;1555;-68
2021/01/07 10:46:36;;;;;;;;;;;20.40;54.70;;;;;;5065548;28;1388;-68
2021/01/07 10:49:01;;;;;;;;;;;20.50;54.40;;;;;;5056951;28;1669;-68
2021/01/07 10:51:27;;;;;;;;;;;20.60;54.30;;;;;;5045606;28;1759;-68
2021/01/07 10:54:05;;;;;;;;;;;20.70;54.10;;;;;;5053338;28;1901;-68
2021/01/07 10:56:30;;;;;;;;;;;20.70;53.90;;;;;;5049201;28;1604;-68
2021/01/07 10:59:07;;;;;;;;;;;20.80;53.70;;;;;;5056366;28;1555;-68
2021/01/07 11:01:41;;;;;;;;;;;20.90;53.60;;;;;;5053539;28;1643;-68
2021/01/07 11:04:07;;;;;;;;;;;20.90;53.40;;;;;;5074411;28;1348;-68
2021/01/07 11:06:32;;;;;;;;;;;21.00;53.30;;;;;;5074326;28;1321;-68
2021/01/07 11:08:58;;;;;;;;;;;21.00;53.20;;;;;;5074564;28;1378;-68
2021/01/07 11:11:51;;;;;;;;;;;21.00;53.20;;;;;;5063812;28;1858;-67
2021/01/07 11:14:31;;;;;;;;;;;21.10;53.10;;;;;;5058986;28;1901;-67
2021/01/07 11:16:57;;;;;;;;;;;21.10;53.00;;;;;;5042352;28;2080;-67
2021/01/07 11:19:23;;;;;;;;;;;21.20;52.90;;;;;;5051636;28;1775;-67
2021/01/07 11:22:00;;;;;;;;;;;21.20;52.90;;;;;;5052916;28;1577;-67
2021/01/07 11:24:25;;;;;;;;;;;21.30;52.90;;;;;;5055213;28;1477;-66
2021/01/07 11:26:50;;;;;;;;;;;21.20;53.30;;;;;;5073682;28;1613;-67
2021/01/07 11:29:16;;;;;;;;;;;21.30;52.70;;;;;;5056168;28;1382;-67
2021/01/07 11:31:42;;;;;;;;;;;21.30;52.70;;;;;;5066506;28;1349;-66
2021/01/07 11:34:08;;;;;;;;;;;21.30;52.60;;;;;;5054716;28;1914;-68
2021/01/07 11:36:35;;;;;;;;;;;21.40;52.60;;;;;;5039980;28;1539;-68
2021/01/07 11:39:00;;;;;;;;;;;21.40;52.60;;;;;;5053787;28;1589;-68
2021/01/07 11:41:26;;;;;;;;;;;21.40;52.60;;;;;;5073934;28;1245;-68
2021/01/07 11:43:56;;;;;;;;;;;21.40;52.50;;;;;;5073695;28;1550;-68
2021/01/07 11:46:21;;;;;;;;;;;21.50;52.50;;;;;;5073579;28;1617;-68
2021/01/07 11:48:56;;;;;;;;;;;21.50;52.50;;;;;;5055887;28;1402;-68
2021/01/07 11:51:21;;;;;;;;;;;21.50;52.40;;;;;;5063169;28;1515;-68
2021/01/07 11:53:47;;;;;;;;;;;21.50;52.40;;;;;;5070564;28;1910;-68
2021/01/07 11:56:12;;;;;;;;;;;21.50;52.40;;;;;;5055641;28;1147;-68
2021/01/07 11:58:39;;;;;;;;;;;21.60;52.40;;;;;;5061038;28;1579;-69
2021/01/07 12:01:04;;;;;;;;;;;21.60;52.40;;;;;;5073442;28;1655;-68
2021/01/07 12:03:30;;;;;;;;;;;21.60;52.40;;;;;;5055201;28;1097;-68
2021/01/07 12:05:57;;;;;;;;;;;21.60;52.40;;;;;;5055350;28;1654;-69
2021/01/07 12:08:29;;;;;;;;;;;21.60;52.30;;;;;;5056731;28;1570;-67
2021/01/07 12:10:55;;;;;;;;;;;21.60;52.30;;;;;;5036747;28;1570;-67
2021/01/07 12:13:26;;;;;;;;;;;21.60;52.30;;;;;;5037528;28;1400;-68
2021/01/07 12:15:52;;;;;;;;;;;21.60;52.20;;;;;;5035117;28;1421;-68
2021/01/07 12:18:17;;;;;;;;;;;21.60;52.20;;;;;;5057247;28;1479;-68
2021/01/07 12:20:43;;;;;;;;;;;21.60;52.30;;;;;;5045424;28;2039;-68
2021/01/07 12:23:09;;;;;;;;;;;21.60;52.30;;;;;;5070798;28;1310;-69
2021/01/07 12:25:34;;;;;;;;;;;21.60;52.40;;;;;;5043736;28;833;-68
2021/01/07 12:28:00;;;;;;;;;;;21.60;52.40;;;;;;5039973;28;1609;-67
2021/01/07 12:30:25;;;;;;;;;;;21.60;52.40;;;;;;5073462;28;1390;-68
2021/01/07 12:32:55;;;;;;;;;;;21.60;52.40;;;;;;5056695;28;1458;-67
2021/01/07 12:35:23;;;;;;;;;;;21.60;52.50;;;;;;5034949;28;1980;-68
2021/01/07 12:37:54;;;;;;;;;;;21.60;52.50;;;;;;5046463;28;1459;-68
2021/01/07 12:40:19;;;;;;;;;;;21.60;52.60;;;;;;5042999;28;1319;-67
2021/01/07 12:42:47;;;;;;;;;;;21.50;52.60;;;;;;5051665;28;1279;-67
2021/01/07 12:45:13;;;;;;;;;;;21.50;52.60;;;;;;5050897;28;1268;-68
2021/01/07 12:47:39;;;;;;;;;;;21.50;52.70;;;;;;5071125;28;1362;-68
2021/01/07 12:50:04;;;;;;;;;;;21.50;52.70;;;;;;5054563;28;1359;-67
2021/01/07 12:52:30;;;;;;;;;;;21.40;52.70;;;;;;5058803;28;1193;-67
2021/01/07 12:54:55;;;;;;;;;;;21.40;52.80;;;;;;5054821;28;1963;-67
2021/01/07 12:57:23;;;;;;;;;;;21.40;52.90;;;;;;5049169;28;1546;-68
2021/01/07 12:59:52;;;;;;;;;;;21.40;52.90;;;;;;5034734;28;1337;-68
2021/01/07 13:02:30;;;;;;;;;;;21.40;53.00;;;;;;5058568;28;1285;-68
2021/01/07 13:05:15;;;;;;;;;;;21.30;53.00;;;;;;5054146;28;1358;-69
2021/01/07 13:07:40;;;;;;;;;;;21.30;53.10;;;;;;5054112;28;1280;-67
2021/01/07 13:10:07;;;;;;;;;;;21.30;53.10;;;;;;5054239;28;1286;-68
2021/01/07 13:12:32;;;;;;;;;;;21.30;53.20;;;;;;5042918;28;1127;-68
2021/01/07 13:14:58;;;;;;;;;;;21.20;53.20;;;;;;5037853;28;2019;-68
2021/01/07 13:17:23;;;;;;;;;;;21.20;53.20;;;;;;5071926;28;1290;-68
2021/01/07 13:19:49;;;;;;;;;;;21.20;53.30;;;;;;5054078;28;1284;-68
2021/01/07 13:22:14;;;;;;;;;;;21.20;53.30;;;;;;5054196;28;1284;-68
2021/01/07 13:24:40;;;;;;;;;;;21.20;53.40;;;;;;5053713;28;1451;-68
2021/01/07 13:27:05;;;;;;;;;;;21.20;53.40;;;;;;5054020;28;1327;-69
2021/01/07 13:29:31;;;;;;;;;;;21.10;53.50;;;;;;5053844;28;1370;-68
2021/01/07 13:31:56;;;;;;;;;;;21.10;53.50;;;;;;5031348;28;2015;-66
2021/01/07 13:34:22;;;;;;;;;;;21.10;53.50;;;;;;5067001;28;1957;-66
2021/01/07 13:36:47;;;;;;;;;;;21.10;53.60;;;;;;5062274;28;1289;-66
2021/01/07 13:39:13;;;;;;;;;;;21.10;53.70;;;;;;5068556;28;1358;-67
2021/01/07 13:41:38;;;;;;;;;;;21.00;53.60;;;;;;5045002;28;1147;-66
2021/01/07 13:44:08;;;;;;;;;;;21.00;53.70;;;;;;5049961;28;1247;-67
2021/01/07 13:46:34;;;;;;;;;;;21.00;53.70;;;;;;5071973;28;1295;-67
2021/01/07 13:49:00;;;;;;;;;;;21.00;53.70;;;;;;5053514;28;1307;-66
2021/01/07 13:51:25;;;;;;;;;;;21.00;53.80;;;;;;5045956;28;1225;-67
2021/01/07 13:53:51;;;;;;;;;;;21.00;53.80;;;;;;5054111;28;1969;-67
2021/01/07 13:56:16;;;;;;;;;;;20.90;53.80;;;;;;5054261;28;1295;-67
2021/01/07 13:58:42;;;;;;;;;;;20.90;53.90;;;;;;5049939;28;1366;-67
2021/01/07 14:01:07;;;;;;;;;;;20.90;53.90;;;;;;5057731;28;1040;-66
2021/01/07 14:03:32;;;;;;;;;;;20.90;54.00;;;;;;5075517;28;1327;-67
2021/01/07 14:05:58;;;;;;;;;;;20.90;54.00;;;;;;5075348;28;1199;-66
2021/01/07 14:08:28;;;;;;;;;;;20.90;54.10;;;;;;5075521;28;1356;-67
2021/01/07 14:10:54;;;;;;;;;;;20.90;54.10;;;;;;5057499;28;1280;-67
2021/01/07 14:13:19;;;;;;;;;;;20.80;54.10;;;;;;5057251;28;1099;-67
2021/01/07 14:15:45;;;;;;;;;;;20.80;54.10;;;;;;5055316;28;1894;-67
2021/01/07 14:18:10;;;;;;;;;;;20.80;54.20;;;;;;5068737;28;1362;-67
2021/01/07 14:20:36;;;;;;;;;;;20.80;54.30;;;;;;5037618;28;1130;-68
2021/01/07 14:23:01;;;;;;;;;;;20.80;54.30;;;;;;5055115;28;1056;-68
2021/01/07 14:25:28;;;;;;;;;;;20.70;54.30;;;;;;5066489;28;1246;-67
2021/01/07 14:28:09;;;;;;;;;;;20.70;54.30;;;;;;5052614;28;1359;-67
2021/01/07 14:30:35;;;;;;;;;;;20.70;55.00;;;;;;5055234;28;1178;-67